• Join FlightAware (Why Join?)
  • Login
  • US Flag 
12:17AM EDT


 

Airport Tracker/Info


-or-


 

Live Flight TrackerFlight Track Log ✈ UAL3740 ✈ 11-Apr-2013 ✈ KIAD - KPVD

Flight Track Log - Related Links

Times and Time Zones

All times are in EDT time to prevent confusion due to time zone crossing. See the UAL3740 flight status page for this flight to view local times or setup timezone preferences in your user account.

Time Position Orientation Groundspeed Altitude Reporting Facility
EDT Latitude Longitude Course Direction KTS MPH feet Rate Location/Type
08:41AM 38.9667 -77.5167 90° East 180 207 1,700  Level Potomac TRACON
08:42AM 39.0000 -77.5833 303° West 246 283 4,000 2,220 Climbing Potomac TRACON
08:43AM 39.0667 -77.6167 339° North 289 333 6,200 2,520 Climbing Potomac TRACON
08:44AM 39.1167 -77.5333 52° Northeast 313 360 8,900 1,920 Climbing Potomac TRACON
08:45AM 39.1500 -77.4167 70° East 348 400 10,100 600 Climbing Potomac TRACON
08:46AM 39.1500 -77.2833 90° East 397 457 10,100 240 Level Potomac TRACON
08:47AM 39.0833 -76.5777 90° East  Level FlightAware Approximate
08:48AM 39.0944 -77.0306 106° East 420 483 10,800  Level Washington Center
08:49AM 39.0750 -76.8992 101° East 399 459 13,700 2,400 Climbing Washington Center
08:50AM 39.0953 -76.7736 78° East 383 441 15,700 1,860 Climbing Washington Center
08:51AM 39.1089 -76.6322 83° East 390 449 17,500 1,560 Climbing Washington Center
08:52AM 39.1269 -76.4825 81° East 406 467 18,900 720 Climbing Washington Center
08:53AM 39.1447 -76.3222 82° East 428 493 19,000 960 Climbing Washington Center
08:54AM 39.1622 -76.1617 82° East 447 514 20,900 1,860 Climbing Washington Center
08:55AM 39.1772 -76.0014 83° East 452 520 22,800 1,200 Climbing Washington Center
08:56AM 39.2172 -75.8489 71° East 452 520 23,300 960 Climbing Washington Center
08:57AM 39.3092 -75.7336 44° Northeast 434 499 24,800 1,440 Climbing Washington Center
08:58AM 39.3989 -75.6158 45° Northeast 445 512 26,200 1,200 Climbing Washington Center
08:59AM 39.4886 -75.5003 45° Northeast 445 512 27,300 900 Climbing Washington Center
09:01AM 39.6717 -75.2614 45° Northeast 446 513 29,000 540 Climbing New York Center
09:02AM 39.7619 -75.1294 48° Northeast 464 534 29,000  Level New York Center
09:03AM 39.8522 -75.0025 47° Northeast 477 549 29,000  Level New York Center
09:04AM 39.9422 -74.8672 49° Northeast 483 556 29,000  Level New York Center
09:05AM 40.0411 -74.7239 48° Northeast 483 556 29,000  Level New York Center
09:06AM 40.0958 -74.5806 63° Northeast 477 549 29,000 -120 Level New York Center
09:07AM 40.1639 -74.4050 63° Northeast 483 556 28,800 -660 Descending New York Center
09:10AM 40.2967 -74.0453 64° Northeast 498 573 27,000 -600 Descending Boston Center
09:10AM 40.3572 -73.8889 63° Northeast 493 567 27,000  Level Boston Center
09:12AM 40.4175 -73.7294 64° Northeast 488 562 27,000  Level Boston Center
09:13AM 40.4842 -73.5286 66° East 488 562 27,000  Level Boston Center
09:14AM 40.5419 -73.3658 65° Northeast 488 562 27,000 -960 Level Boston Center
09:15AM 40.6142 -73.1700 64° Northeast 483 556 25,000 -1,740 Descending Boston Center
09:16AM 40.6733 -73.0092 64° Northeast 483 556 23,200 -1,800 Descending Boston Center
09:17AM 40.7303 -72.8508 65° Northeast 478 550 21,400 -1,920 Descending Boston Center
09:18AM 40.7933 -72.6786 64° Northeast 473 544 19,400 -1,860 Descending Boston Center
09:19AM 40.8414 -72.5333 66° East 473 544 17,800 -1,680 Descending Boston Center
09:20AM 40.8958 -72.3769 65° Northeast 473 544 16,000 -1,860 Descending Boston Center
09:21AM 40.9497 -72.2258 65° Northeast 462 532 14,200 -2,100 Descending Boston Center
09:21AM 40.9683 -72.1761 64° Northeast 463 533 13,500 -1,800 Descending Boston Center
09:22AM 41.0014 -72.0717 67° East 456 525 12,400 -1,740 Descending Boston Center
09:22AM 41.0219 -72.0136 65° Northeast 449 517 11,600 -1,800 Descending Boston Center
09:23AM 41.0467 -71.9419 65° Northeast 449 517 10,600 -1,200 Descending Boston Center
09:24AM 41.1192 -71.8203 52° Northeast 371 427 9,600 -1,140 Descending Boston Center
09:24AM 41.1314 -71.7981 54° Northeast 334 384 9,200 -1,800 Descending Boston Center
09:25AM 41.1892 -71.7036 51° Northeast 323 372 7,400 -1,500 Descending Boston Center
09:26AM 41.2428 -71.6175 50° Northeast 310 357 6,200 -1,200 Descending Boston Center
09:27AM 41.3133 -71.5778 23° Northeast 256 295 5,000 -600 Descending Boston Center
09:28AM 41.3822 -71.5769 North 251 289 5,000 -660 Level Boston Center
09:29AM 41.4550 -71.5758 North 260 299 3,700 -1,440 Descending Boston Center
09:30AM 41.5217 -71.5750 North 242 278 2,200 -900 Descending Boston Center
09:31AM 41.5800 -71.5492 18° North 224 258 2,000 -120 Descending Boston Center
09:32AM 41.6214 -71.5153 31° Northeast 193 222 2,000 -360 Level Boston Center
09:33AM 41.6544 -71.4872 32° Northeast 150 173 1,400 -660 Descending Boston Center
09:34AM 41.6856 -71.4617 32° Northeast 127 146 800 -600 Descending Boston Center